Warner Springs, CA (92086)

10:22 AM PST on December 28, 2014 (GMT -0800)
Mesa Grande | Change Station
CLOSE
Current Station
Personal Weather Station
Location: Santa Ysabel, CA
Elevation: 3481 ft
Nearby Weather Stations

Elev 3481 ft 33.21 °N, 116.75 °W | Updated 11 minutes ago

Mostly Cloudy
Mostly Cloudy
44.0 °F
Feels Like 44 °F
N
2.0
Wind Variable Wind from NNW
Gusts 4.0 mph

Today
High -- | Low -- °F
--% Chance of Precip.
Yesterday
High -- | Low -- °F
Precip. -- in
6:49 AM 4:47 PM
Waxing Crescent, 50% visible
Pressure 30.26 in
Visibility 10.0 miles
Clouds Clear
Windchill 44 °F
Dew Point 16 °F
Humidity 32%
Rainfall 0.00 in
Snow Depth Not available.
UV 2.3 out of 12
Pollen 5.50 out of 12
Air Quality Not available.
Flu Activity Not available.
METAR KRNM 281753Z 00000KT 10SM CLR 09/M08 A3025 RMK AO2 SLP247 T00891078 10089 21044 50007

More Conditions Fewer Conditions

Pressure 30.26 in
Visibility 10.0 miles
Clouds Clear
Windchill 44 °F
Dew Point 16 °F
Humidity 32%
Rainfall 0.00 in
Snow Depth Not available.
UV 2.3 out of 12
Pollen 5.50 out of 12
Air Quality Not available.
Flu Activity Not available.
METAR KRNM 281753Z 00000KT 10SM CLR 09/M08 A3025 RMK AO2 SLP247 T00891078 10089 21044 50007

More Conditions Fewer Conditions

10-Day Weather Forecast

Almanac

Astronomy

Dec. 28, 2014 Rise Set
Actual Time
Civil Twilight
Nautical Twilight
Astronomical Twilight
Moon
Length of Visible Light
Length of Day
Tomorrow will be .
, % of the Moon is Illuminated

Today's Extremes

State Highs State Lows

Community

WunderPhotos

Upload Photos

1,781,379 photos uploaded!

WunderBlogs® & News

Nearby

Air Quality

  Air Quality AQ Index Pollutant
Not available.

Snow Depth

Station Depth Elevation

Earthquake Activity

City Distance Mag. Time & Date
Minimum magnitude displayed is 2.5.

Coastal Water Temperatures

Place Temperature

Nearby Weather Stations